createdAt,value
2018-12-26T00:01:55.565Z,102406.37
2018-12-26T00:04:28.148Z,102409.94
2018-12-26T00:07:00.339Z,102413.90
2018-12-26T00:09:32.327Z,102403.66
2018-12-26T00:12:05.010Z,102408.52
2018-12-26T00:14:37.111Z,102405.44
2018-12-26T00:17:09.700Z,102394.77
2018-12-26T00:19:41.947Z,102388.97
2018-12-26T00:22:14.490Z,102384.11
2018-12-26T00:24:49.326Z,102394.27
2018-12-26T00:27:21.591Z,102407.19
2018-12-26T00:29:54.337Z,102402.72
2018-12-26T00:32:26.949Z,102401.81
2018-12-26T00:35:00.401Z,102405.80
2018-12-26T00:37:32.314Z,102391.62
2018-12-26T00:40:04.237Z,102392.00
2018-12-26T00:42:37.090Z,102412.86
2018-12-26T00:45:10.817Z,102433.30
2018-12-26T00:47:43.287Z,102431.08
2018-12-26T00:50:15.189Z,102428.86
2018-12-26T00:52:48.175Z,102426.20
2018-12-26T00:55:21.199Z,102413.30
2018-12-26T00:57:54.156Z,102396.44
2018-12-26T01:00:27.550Z,102402.64
2018-12-26T01:03:00.267Z,102408.88
2018-12-26T01:05:33.068Z,102405.77
2018-12-26T01:08:05.787Z,102415.09
2018-12-26T01:10:38.365Z,102417.73
2018-12-26T01:13:10.502Z,102409.70
2018-12-26T01:15:42.781Z,102414.16
2018-12-26T01:18:15.375Z,102422.16
2018-12-26T01:20:48.976Z,102434.55
2018-12-26T01:23:20.799Z,102423.03
2018-12-26T01:25:52.821Z,102429.19
2018-12-26T01:28:25.963Z,102430.09
2018-12-26T01:30:58.230Z,102434.95
2018-12-26T01:33:30.838Z,102435.36
2018-12-26T01:36:03.250Z,102437.13
2018-12-26T01:38:35.687Z,102452.67
2018-12-26T01:41:08.418Z,102447.79
2018-12-26T01:43:40.393Z,102454.05
2018-12-26T01:46:13.100Z,102444.20
2018-12-26T01:48:45.527Z,102437.55
2018-12-26T01:51:18.983Z,102437.13
2018-12-26T01:53:51.297Z,102439.80
2018-12-26T01:56:28.100Z,102444.63
2018-12-26T01:58:58.498Z,102438.39
2018-12-26T02:01:31.551Z,102433.05
2018-12-26T02:04:04.003Z,102432.17
2018-12-26T02:06:35.902Z,102425.03
2018-12-26T02:09:10.733Z,102411.70
2018-12-26T02:11:43.498Z,102404.62
2018-12-26T02:14:16.216Z,102410.81
2018-12-26T02:16:48.438Z,102408.59
2018-12-26T02:19:20.282Z,102405.94
2018-12-26T02:21:53.274Z,102401.95
2018-12-26T02:24:25.509Z,102408.60
2018-12-26T02:26:57.811Z,102405.92
2018-12-26T02:29:29.829Z,102412.13
2018-12-26T02:32:02.045Z,102395.70
2018-12-26T02:34:34.158Z,102403.23
2018-12-26T02:37:07.244Z,102405.02
2018-12-26T02:39:40.179Z,102397.03
2018-12-26T02:42:12.671Z,102402.33
2018-12-26T02:44:45.613Z,102395.66
2018-12-26T02:47:19.514Z,102412.09
2018-12-26T02:49:51.996Z,102409.84
2018-12-26T02:52:25.446Z,102406.73
2018-12-26T02:54:57.250Z,102380.53
2018-12-26T02:57:29.467Z,102384.55
2018-12-26T03:00:01.587Z,102382.72
2018-12-26T03:02:34.323Z,102382.73
2018-12-26T03:05:06.740Z,102376.94
2018-12-26T03:07:40.274Z,102370.28
2018-12-26T03:10:12.649Z,102356.95
2018-12-26T03:12:45.153Z,102357.88
2018-12-26T03:15:17.832Z,102355.20
2018-12-26T03:17:49.881Z,102357.42
2018-12-26T03:20:22.222Z,102354.75
2018-12-26T03:22:54.493Z,102356.53
2018-12-26T03:25:28.092Z,102356.05
2018-12-26T03:27:59.922Z,102360.48
2018-12-26T03:30:32.073Z,102357.38
2018-12-26T03:33:03.982Z,102353.36
2018-12-26T03:35:36.302Z,102357.83
2018-12-26T03:38:08.276Z,102348.89
2018-12-26T03:40:40.480Z,102359.95
2018-12-26T03:43:12.953Z,102347.05
2018-12-26T03:45:48.600Z,102344.34
2018-12-26T03:48:22.716Z,102331.93
2018-12-26T03:50:54.479Z,102336.86
2018-12-26T03:53:26.503Z,102334.63
2018-12-26T03:55:58.094Z,102336.34
2018-12-26T03:58:29.612Z,102338.11
2018-12-26T04:01:02.404Z,102339.47
2018-12-26T04:03:33.732Z,102333.27
2018-12-26T04:06:04.859Z,102333.22
2018-12-26T04:08:36.000Z,102334.55
2018-12-26T04:11:07.597Z,102335.41
2018-12-26T04:13:40.510Z,102338.91
2018-12-26T04:16:12.907Z,102340.23
2018-12-26T04:18:49.549Z,102332.63
2018-12-26T04:21:23.085Z,102324.62
2018-12-26T04:23:55.270Z,102327.30
2018-12-26T04:26:28.599Z,102321.95
2018-12-26T04:29:00.867Z,102323.69
2018-12-26T04:31:32.706Z,102322.83
2018-12-26T04:34:05.237Z,102329.94
2018-12-26T04:36:38.145Z,102318.80
2018-12-26T04:39:11.010Z,102318.31
2018-12-26T04:41:44.063Z,102325.02
2018-12-26T04:44:16.638Z,102332.98
2018-12-26T04:46:50.383Z,102330.77
2018-12-26T04:49:23.941Z,102331.69
2018-12-26T04:51:56.729Z,102340.57
2018-12-26T04:54:28.614Z,102331.70
2018-12-26T04:57:01.309Z,102329.45
2018-12-26T04:59:34.516Z,102336.52
2018-12-26T05:02:10.577Z,102339.17
2018-12-26T05:04:43.583Z,102325.84
2018-12-26T05:07:15.491Z,102330.73
2018-12-26T05:09:47.785Z,102326.25
2018-12-26T05:12:20.647Z,102324.50
2018-12-26T05:14:53.611Z,102331.58
2018-12-26T05:17:25.791Z,102335.61
2018-12-26T05:19:58.716Z,102327.11
2018-12-26T05:22:33.687Z,102316.91
2018-12-26T05:25:09.093Z,102320.47
2018-12-26T05:27:42.093Z,102317.75
2018-12-26T05:30:13.994Z,102317.34
2018-12-26T05:32:46.192Z,102320.88
2018-12-26T05:35:18.299Z,102316.44
2018-12-26T05:37:50.816Z,102319.59
2018-12-26T05:40:23.217Z,102327.46
2018-12-26T05:42:55.589Z,102325.76
2018-12-26T05:45:28.876Z,102332.93
2018-12-26T05:48:00.838Z,102332.06
2018-12-26T05:50:33.122Z,102331.58
2018-12-26T05:53:05.281Z,102328.47
2018-12-26T05:55:37.868Z,102323.58
2018-12-26T05:58:09.706Z,102338.28
2018-12-26T06:00:42.334Z,102339.56
2018-12-26T06:03:15.008Z,102330.68
2018-12-26T06:05:46.981Z,102334.67
2018-12-26T06:08:19.258Z,102335.54
2018-12-26T06:10:52.103Z,102335.95
2018-12-26T06:13:24.001Z,102338.21
2018-12-26T06:15:56.220Z,102344.81
2018-12-26T06:18:28.900Z,102347.03
2018-12-26T06:21:01.233Z,102354.62
2018-12-26T06:23:33.259Z,102351.05
2018-12-26T06:26:06.803Z,102355.93
2018-12-26T06:28:40.052Z,102358.63
2018-12-26T06:31:13.145Z,102365.25
2018-12-26T06:33:45.659Z,102373.70
2018-12-26T06:36:19.069Z,102366.57
2018-12-26T06:38:50.936Z,102375.48
2018-12-26T06:41:23.483Z,102373.66
2018-12-26T06:43:56.176Z,102372.80
2018-12-26T06:46:28.914Z,102376.81
2018-12-26T06:49:02.178Z,102376.37
2018-12-26T06:51:35.563Z,102377.23
2018-12-26T06:54:07.879Z,102377.27
2018-12-26T06:56:39.977Z,102382.59
2018-12-26T06:59:12.207Z,102387.95
2018-12-26T07:01:45.172Z,102390.16
2018-12-26T07:04:17.674Z,102396.33
2018-12-26T07:06:51.059Z,102390.53
2018-12-26T07:09:23.327Z,102403.91
2018-12-26T07:11:55.530Z,102408.77
2018-12-26T07:14:28.669Z,102412.80
2018-12-26T07:17:01.424Z,102409.66
2018-12-26T07:19:34.001Z,102419.45
2018-12-26T07:22:06.579Z,102414.08
2018-12-26T07:24:39.713Z,102409.24
2018-12-26T07:27:12.430Z,102403.82
2018-12-26T07:29:44.371Z,102400.30
2018-12-26T07:32:16.417Z,102402.44
2018-12-26T07:34:49.202Z,102406.52
2018-12-26T07:37:21.980Z,102406.95
2018-12-26T07:39:54.663Z,102396.23
2018-12-26T07:42:27.136Z,102404.27
2018-12-26T07:44:59.497Z,102396.73
2018-12-26T07:47:32.439Z,102399.82
2018-12-26T07:50:04.880Z,102406.89
2018-12-26T07:52:36.882Z,102411.31
2018-12-26T07:55:09.055Z,102408.16
2018-12-26T07:57:41.322Z,102414.88
2018-12-26T08:00:14.162Z,102418.44
2018-12-26T08:02:46.288Z,102422.02
2018-12-26T08:05:18.318Z,102430.41
2018-12-26T08:07:50.990Z,102430.52
2018-12-26T08:10:23.376Z,102435.81
2018-12-26T08:12:57.148Z,102442.95
2018-12-26T08:15:29.207Z,102445.14
2018-12-26T08:18:01.608Z,102439.84
2018-12-26T08:20:33.904Z,102441.09
2018-12-26T08:23:07.177Z,102439.34
2018-12-26T08:25:39.304Z,102442.87
2018-12-26T08:28:11.703Z,102440.20
2018-12-26T08:30:43.796Z,102442.83
2018-12-26T08:33:15.752Z,102434.84
2018-12-26T08:35:48.182Z,102440.59
2018-12-26T08:38:20.929Z,102445.50
2018-12-26T08:40:53.698Z,102436.56
2018-12-26T08:43:30.096Z,102432.61
2018-12-26T08:46:03.359Z,102435.25
2018-12-26T08:48:37.577Z,102439.66
2018-12-26T08:51:10.154Z,102442.44
2018-12-26T08:53:43.618Z,102441.53
2018-12-26T08:56:17.580Z,102440.16
2018-12-26T08:58:50.777Z,102439.75
2018-12-26T09:01:22.772Z,102433.07
2018-12-26T09:03:56.625Z,102434.36
2018-12-26T09:06:29.858Z,102435.17
2018-12-26T09:09:03.310Z,102435.96
2018-12-26T09:11:38.056Z,102426.70
2018-12-26T09:14:10.631Z,102435.62
2018-12-26T09:16:42.614Z,102437.87
2018-12-26T09:19:15.929Z,102435.61
2018-12-26T09:21:50.322Z,102438.70
2018-12-26T09:24:22.577Z,102440.84
2018-12-26T09:26:55.304Z,102449.71
2018-12-26T09:29:28.516Z,102443.11
2018-12-26T09:32:00.785Z,102446.13
2018-12-26T09:34:33.092Z,102450.50
2018-12-26T09:37:07.002Z,102443.89
2018-12-26T09:39:39.480Z,102445.18
2018-12-26T09:42:11.970Z,102455.30
2018-12-26T09:44:44.623Z,102457.03
2018-12-26T09:47:17.426Z,102452.62
2018-12-26T09:49:50.824Z,102456.22
2018-12-26T09:52:23.292Z,102455.30
2018-12-26T09:54:55.651Z,102452.11
2018-12-26T09:57:28.339Z,102457.85
2018-12-26T10:00:01.170Z,102460.97
2018-12-26T10:02:33.807Z,102463.18
2018-12-26T10:05:07.141Z,102463.72
2018-12-26T10:07:39.739Z,102460.64
2018-12-26T10:10:12.136Z,102461.86
2018-12-26T10:12:44.520Z,102462.33
2018-12-26T10:15:16.405Z,102463.64
2018-12-26T10:17:48.908Z,102460.51
2018-12-26T10:20:20.859Z,102457.41
2018-12-26T10:22:53.649Z,102454.67
2018-12-26T10:25:26.266Z,102456.40
2018-12-26T10:28:00.340Z,102448.86
2018-12-26T10:30:33.004Z,102452.39
2018-12-26T10:33:05.441Z,102442.99
2018-12-26T10:35:38.153Z,102449.74
2018-12-26T10:38:11.034Z,102450.55
2018-12-26T10:40:43.887Z,102450.87
2018-12-26T10:43:16.449Z,102451.40
2018-12-26T10:45:48.625Z,102452.22
2018-12-26T10:48:22.394Z,102453.53
2018-12-26T10:50:54.435Z,102455.28
2018-12-26T10:53:27.572Z,102450.52
2018-12-26T10:56:00.933Z,102456.28
2018-12-26T10:58:35.079Z,102450.83
2018-12-26T11:01:08.410Z,102454.91
2018-12-26T11:03:41.738Z,102459.83
2018-12-26T11:06:13.995Z,102456.25
2018-12-26T11:08:46.805Z,102456.56
2018-12-26T11:11:19.412Z,102463.91
2018-12-26T11:13:52.992Z,102467.06
2018-12-26T11:16:26.717Z,102460.91
2018-12-26T11:19:00.579Z,102462.22
2018-12-26T11:21:37.323Z,102470.69
2018-12-26T11:24:10.171Z,102467.76
2018-12-26T11:26:42.644Z,102467.33
2018-12-26T11:29:18.668Z,102466.14
2018-12-26T11:31:49.321Z,102461.25
2018-12-26T11:34:21.505Z,102466.73
2018-12-26T11:36:53.787Z,102453.37
2018-12-26T11:39:26.141Z,102454.63
2018-12-26T11:41:58.897Z,102461.47
2018-12-26T11:44:31.310Z,102458.80
2018-12-26T11:47:04.608Z,102454.24
2018-12-26T11:49:36.675Z,102454.29
2018-12-26T11:52:09.034Z,102456.54
2018-12-26T11:54:42.822Z,102452.58
2018-12-26T11:57:16.978Z,102449.80
2018-12-26T11:59:49.543Z,102448.06
2018-12-26T12:02:22.196Z,102447.09
2018-12-26T12:04:54.481Z,102456.87
2018-12-26T12:07:27.451Z,102454.20
2018-12-26T12:10:00.189Z,102456.05
2018-12-26T12:12:34.288Z,102448.92
2018-12-26T12:15:07.679Z,102450.26
2018-12-26T12:17:42.210Z,102451.57
2018-12-26T12:20:22.624Z,102452.45
2018-12-26T12:23:00.411Z,102449.27
2018-12-26T12:25:32.784Z,102448.88
2018-12-26T12:28:06.317Z,102446.25
2018-12-26T12:30:39.985Z,102442.29
2018-12-26T12:33:12.768Z,102447.41
2018-12-26T12:35:49.283Z,102439.39
2018-12-26T12:38:21.991Z,102438.59
2018-12-26T12:40:56.138Z,102433.13
2018-12-26T12:43:28.514Z,102438.05
2018-12-26T12:46:01.348Z,102448.73
2018-12-26T12:48:34.923Z,102443.80
2018-12-26T12:51:08.459Z,102439.88
2018-12-26T12:53:41.612Z,102444.27
2018-12-26T12:56:14.369Z,102436.33
2018-12-26T12:58:48.681Z,102445.57
2018-12-26T13:01:22.580Z,102454.06
2018-12-26T13:03:57.626Z,102454.86
2018-12-26T13:06:31.043Z,102459.02
2018-12-26T13:09:05.387Z,102461.65
2018-12-26T13:11:39.410Z,102474.96
2018-12-26T13:14:13.942Z,102475.82
2018-12-26T13:16:46.738Z,102480.17
2018-12-26T13:19:19.535Z,102481.77
2018-12-26T13:21:52.137Z,102478.23
2018-12-26T13:24:24.570Z,102485.74
2018-12-26T13:26:59.014Z,102482.61
2018-12-26T13:29:32.741Z,102474.52
2018-12-26T13:32:06.704Z,102470.63
2018-12-26T13:34:39.765Z,102470.16
2018-12-26T13:37:13.359Z,102477.23
2018-12-26T13:39:45.761Z,102468.30
2018-12-26T13:42:20.312Z,102472.39
2018-12-26T13:44:54.013Z,102472.38
2018-12-26T13:47:28.023Z,102464.84
2018-12-26T13:50:02.429Z,102473.33
2018-12-26T13:52:35.722Z,102482.21
2018-12-26T13:55:09.164Z,102471.94
2018-12-26T13:57:43.632Z,102471.45
2018-12-26T14:00:15.977Z,102472.27
2018-12-26T14:02:49.814Z,102470.95
2018-12-26T14:05:22.392Z,102466.47
2018-12-26T14:07:55.725Z,102476.69
2018-12-26T14:10:28.644Z,102470.80
2018-12-26T14:13:00.996Z,102475.61
2018-12-26T14:15:33.415Z,102472.09
2018-12-26T14:18:06.272Z,102470.31
2018-12-26T14:20:38.648Z,102463.16
2018-12-26T14:23:11.998Z,102470.69
2018-12-26T14:25:45.311Z,102465.78
2018-12-26T14:28:18.245Z,102467.92
2018-12-26T14:30:50.863Z,102458.54
2018-12-26T14:33:24.211Z,102464.30
2018-12-26T14:36:19.153Z,102461.48
2018-12-26T14:38:53.631Z,102458.83
2018-12-26T14:41:26.381Z,102457.85
2018-12-26T14:43:59.043Z,102462.86
2018-12-26T14:46:31.091Z,102464.23
2018-12-26T14:49:03.950Z,102460.14
2018-12-26T14:51:36.008Z,102465.07
2018-12-26T14:54:09.353Z,102461.96
2018-12-26T14:56:44.067Z,102461.34
2018-12-26T14:59:16.164Z,102464.56
2018-12-26T15:01:48.197Z,102457.47
2018-12-26T15:04:20.847Z,102460.09
2018-12-26T15:06:54.053Z,102454.25
2018-12-26T15:09:27.365Z,102454.63
2018-12-26T15:11:59.866Z,102454.99
2018-12-26T15:14:34.937Z,102450.16
2018-12-26T15:17:07.555Z,102442.52
2018-12-26T15:19:39.898Z,102439.38
2018-12-26T15:22:15.095Z,102445.14
2018-12-26T15:24:49.352Z,102445.12
2018-12-26T15:27:23.667Z,102447.77
2018-12-26T15:29:56.425Z,102448.14
2018-12-26T15:32:30.166Z,102450.36
2018-12-26T15:35:03.466Z,102448.52
2018-12-26T15:37:37.913Z,102447.35
2018-12-26T15:40:11.837Z,102446.95
2018-12-26T15:42:43.814Z,102445.09
2018-12-26T15:45:16.599Z,102452.21
2018-12-26T15:47:49.320Z,102448.58
2018-12-26T15:50:21.724Z,102447.22
2018-12-26T15:52:54.435Z,102435.29
2018-12-26T15:55:26.494Z,102440.56
2018-12-26T15:57:59.152Z,102435.97
2018-12-26T16:00:37.424Z,102435.12
2018-12-26T16:03:07.090Z,102431.00
2018-12-26T16:05:39.263Z,102434.57
2018-12-26T16:08:13.367Z,102427.07
2018-12-26T16:10:47.067Z,102427.53
2018-12-26T16:13:19.459Z,102436.45
2018-12-26T16:16:07.057Z,102430.33
2018-12-26T16:19:14.655Z,102422.70
2018-12-26T16:21:50.610Z,102420.50
2018-12-26T16:24:22.793Z,102420.91
2018-12-26T16:26:57.562Z,102421.31
2018-12-26T16:29:29.920Z,102418.20
2018-12-26T16:32:02.626Z,102419.91
2018-12-26T16:34:35.775Z,102420.27
2018-12-26T16:37:08.591Z,102416.23
2018-12-26T16:39:40.833Z,102412.19
2018-12-26T16:42:13.552Z,102420.23
2018-12-26T16:44:46.078Z,102409.13
2018-12-26T16:47:18.665Z,102410.47
2018-12-26T16:49:51.489Z,102418.47
2018-12-26T16:52:24.843Z,102407.77
2018-12-26T16:54:56.889Z,102408.75
2018-12-26T16:57:34.583Z,102411.92
2018-12-26T17:00:08.019Z,102405.73
2018-12-26T17:02:41.276Z,102406.07
2018-12-26T17:05:13.646Z,102410.15
2018-12-26T17:07:46.502Z,102409.28
2018-12-26T17:10:24.215Z,102412.41
2018-12-26T17:13:01.508Z,102404.86
2018-12-26T17:15:35.631Z,102405.70
2018-12-26T17:18:08.707Z,102405.27
2018-12-26T17:20:41.800Z,102404.30
2018-12-26T17:23:14.214Z,102405.70
2018-12-26T17:25:46.549Z,102404.30
2018-12-26T17:28:19.294Z,102399.97
2018-12-26T17:30:52.151Z,102400.50
2018-12-26T17:33:25.264Z,102396.42
2018-12-26T17:35:58.132Z,102397.30
2018-12-26T17:38:31.937Z,102397.35
2018-12-26T17:41:04.456Z,102402.81
2018-12-26T17:43:38.789Z,102403.72
2018-12-26T17:46:11.724Z,102401.42
2018-12-26T17:48:43.970Z,102409.06
2018-12-26T17:51:29.303Z,102404.53
2018-12-26T17:54:43.131Z,102400.14
2018-12-26T17:57:33.976Z,102396.70
2018-12-26T18:01:17.595Z,102394.44
2018-12-26T18:03:50.338Z,102401.62
2018-12-26T18:06:24.410Z,102396.69
2018-12-26T18:08:56.569Z,102397.17
2018-12-26T18:11:29.806Z,102398.07
2018-12-26T18:14:02.579Z,102393.98
2018-12-26T18:16:35.776Z,102397.06
2018-12-26T18:19:11.220Z,102395.84
2018-12-26T18:21:43.993Z,102388.25
2018-12-26T18:24:16.233Z,102385.14
2018-12-26T18:26:49.003Z,102385.17
2018-12-26T18:29:20.905Z,102381.10
2018-12-26T18:31:53.798Z,102387.23
2018-12-26T18:34:26.018Z,102388.10
2018-12-26T18:36:59.950Z,102385.95
2018-12-26T18:39:32.369Z,102390.87
2018-12-26T18:42:05.021Z,102393.08
2018-12-26T18:44:37.495Z,102395.31
2018-12-26T18:47:12.021Z,102390.38
2018-12-26T18:49:46.492Z,102391.16
2018-12-26T18:52:18.848Z,102396.59
2018-12-26T18:54:54.281Z,102401.05
2018-12-26T18:57:28.168Z,102391.72
2018-12-26T19:00:01.269Z,102401.05
2018-12-26T19:02:34.567Z,102412.73
2018-12-26T19:05:08.773Z,102396.22
2018-12-26T19:07:41.229Z,102409.23
2018-12-26T19:10:13.953Z,102403.91
2018-12-26T19:12:47.150Z,102398.59
2018-12-26T19:15:20.997Z,102414.20
2018-12-26T19:17:53.906Z,102405.25
2018-12-26T19:20:25.874Z,102413.27
2018-12-26T19:22:59.041Z,102408.85
2018-12-26T19:25:31.400Z,102407.56
2018-12-26T19:28:04.224Z,102407.08
2018-12-26T19:30:36.830Z,102407.97
2018-12-26T19:33:18.983Z,102400.77
2018-12-26T19:35:51.534Z,102410.92
2018-12-26T19:38:24.131Z,102416.33
2018-12-26T19:40:56.647Z,102412.40
2018-12-26T19:43:28.839Z,102413.32
2018-12-26T19:46:01.849Z,102415.61
2018-12-26T19:48:34.685Z,102407.55
2018-12-26T19:51:08.690Z,102416.48
2018-12-26T19:53:42.431Z,102413.84
2018-12-26T19:56:15.965Z,102411.66
2018-12-26T19:58:50.569Z,102404.95
2018-12-26T20:01:24.323Z,102412.91
2018-12-26T20:03:56.807Z,102411.16
2018-12-26T20:06:32.409Z,102413.84
2018-12-26T20:09:06.457Z,102408.49
2018-12-26T20:11:39.132Z,102410.27
2018-12-26T20:14:16.626Z,102403.09
2018-12-26T20:16:49.180Z,102399.22
2018-12-26T20:19:22.009Z,102399.52
2018-12-26T20:21:54.602Z,102393.52
2018-12-26T20:24:26.737Z,102400.20
2018-12-26T20:26:59.061Z,102397.95
2018-12-26T20:29:32.242Z,102390.87
2018-12-26T20:32:05.073Z,102398.01
2018-12-26T20:34:38.668Z,102391.73
2018-12-26T20:37:11.387Z,102399.40
2018-12-26T20:39:44.017Z,102384.70
2018-12-26T20:42:18.246Z,102386.42
2018-12-26T20:44:51.695Z,102392.81
2018-12-26T20:47:24.702Z,102391.94
2018-12-26T20:49:58.712Z,102390.66
2018-12-26T20:52:31.418Z,102392.11
2018-12-26T20:55:05.122Z,102388.52
2018-12-26T20:57:37.800Z,102389.87
2018-12-26T21:00:15.790Z,102383.61
2018-12-26T21:02:48.593Z,102385.41
2018-12-26T21:05:21.655Z,102387.23
2018-12-26T21:07:55.642Z,102386.80
2018-12-26T21:10:28.161Z,102387.20
2018-12-26T21:13:02.117Z,102398.36
2018-12-26T21:15:34.911Z,102395.30
2018-12-26T21:18:07.541Z,102390.41
2018-12-26T21:20:39.908Z,102397.50
2018-12-26T21:23:13.827Z,102391.72
2018-12-26T21:25:46.896Z,102391.77
2018-12-26T21:28:23.347Z,102389.05
2018-12-26T21:30:56.037Z,102377.86
2018-12-26T21:33:29.815Z,102376.59
2018-12-26T21:36:03.601Z,102369.04
2018-12-26T21:38:36.453Z,102370.87
2018-12-26T21:41:09.368Z,102362.72
2018-12-26T21:43:42.320Z,102367.20
2018-12-26T21:46:15.057Z,102356.43
2018-12-26T21:48:48.649Z,102352.03
2018-12-26T21:51:23.359Z,102363.22
2018-12-26T21:53:56.597Z,102354.68
2018-12-26T21:56:29.461Z,102342.33
2018-12-26T21:59:03.668Z,102341.09
2018-12-26T22:01:36.220Z,102349.48
2018-12-26T22:04:08.500Z,102354.86
2018-12-26T22:06:41.655Z,102351.78
2018-12-26T22:09:14.885Z,102340.24
2018-12-26T22:11:47.359Z,102340.83
2018-12-26T22:14:19.334Z,102342.89
2018-12-26T22:16:51.848Z,102340.75
2018-12-26T22:19:24.158Z,102330.41
2018-12-26T22:21:56.952Z,102338.08
2018-12-26T22:24:29.578Z,102338.00
2018-12-26T22:27:05.885Z,102324.24
2018-12-26T22:29:39.083Z,102321.59
2018-12-26T22:32:13.028Z,102325.50
2018-12-26T22:34:45.816Z,102325.06
2018-12-26T22:37:18.844Z,102326.11
2018-12-26T22:39:52.361Z,102327.47
2018-12-26T22:42:26.284Z,102331.84
2018-12-26T22:45:00.078Z,102336.30
2018-12-26T22:47:32.365Z,102330.21
2018-12-26T22:50:04.807Z,102345.84
2018-12-26T22:52:38.204Z,102335.60
2018-12-26T22:55:10.119Z,102335.11
2018-12-26T22:57:42.787Z,102345.29
2018-12-26T23:00:17.985Z,102332.02
2018-12-26T23:02:52.110Z,102336.38
2018-12-26T23:05:25.544Z,102328.91
2018-12-26T23:07:57.922Z,102334.19
2018-12-26T23:10:31.152Z,102326.57
2018-12-26T23:13:03.785Z,102327.08
2018-12-26T23:15:36.579Z,102331.52
2018-12-26T23:18:09.323Z,102334.67
2018-12-26T23:20:42.120Z,102323.48
2018-12-26T23:23:14.229Z,102336.22
2018-12-26T23:25:47.351Z,102333.11
2018-12-26T23:28:21.058Z,102336.29
2018-12-26T23:30:53.435Z,102331.87
2018-12-26T23:33:26.897Z,102330.07
2018-12-26T23:35:59.981Z,102328.70
2018-12-26T23:38:32.857Z,102326.12
2018-12-26T23:41:06.065Z,102323.86
2018-12-26T23:43:38.076Z,102323.81
2018-12-26T23:46:10.899Z,102322.11
2018-12-26T23:49:07.548Z,102318.61
2018-12-26T23:51:40.754Z,102316.44
2018-12-26T23:54:12.899Z,102318.23
2018-12-26T23:56:45.780Z,102312.92
2018-12-26T23:59:18.534Z,102306.59
